This is the latest recevied weather packets stored in our database for station/object N3EDS. If no packets are shown the sender has not sent any weather packets the latest 10 day(s).
| Time | Temp. | Humidity | Pressure | Rain* | Wind** | Luminosity | Snow |
|---|---|---|---|---|---|---|---|
| 1777746471 | 6.67° C | 66% | 1014.6 hPa | 0 mm | - | 381 W/m² | - |
| 1777746161 | 6.11° C | 68% | 1014.5 hPa | 0 mm | - | 274 W/m² | - |
| 1777745858 | 6.11° C | 69% | 1014.6 hPa | 0 mm | - | 152 W/m² | - |
| 1777745552 | 6.11° C | 69% | 1014.6 hPa | 0 mm | - | 136 W/m² | - |
| 1777745249 | 6.11° C | 68% | 1014.3 hPa | 0 mm | - | 150 W/m² | - |
| 1777744946 | 6.67° C | 68% | 1014.6 hPa | 0 mm | - | 92 W/m² | - |
| 1777744645 | 6.67° C | 69% | 1014.6 hPa | 0 mm | - | 228 W/m² | - |
| 1777744335 | 6.11° C | 70% | 1014.6 hPa | 0 mm | - | 427 W/m² | - |
| 1777744032 | 5.56° C | 71% | 1014.6 hPa | 0 mm | - | 275 W/m² | - |
| 1777743730 | 5.56° C | 71% | 1014.7 hPa | 0 mm | - | 217 W/m² | - |
| 1777743426 | 6.11° C | 69% | 1014.4 hPa | 0 mm | - | 170 W/m² | - |
| 1777743124 | 6.11° C | 71% | 1014.4 hPa | 0 mm | - | 249 W/m² | - |
| 1777742822 | 6.11° C | 68% | 1014.3 hPa | 0 mm | - | 247 W/m² | - |
| 1777742517 | 6.11° C | 68% | 1014.4 hPa | 0 mm | - | 209 W/m² | - |
| 1777742213 | 6.11° C | 64% | 1014.5 hPa | 0 mm | - | 172 W/m² | - |
| 1777741910 | 6.11° C | 65% | 1014.2 hPa | 0 mm | - | 117 W/m² | - |
| 1777741607 | 6.11° C | 65% | 1014.5 hPa | 0 mm | - | 134 W/m² | - |
| 1777741304 | 6.67° C | 62% | 1014.7 hPa | 0 mm | - | 196 W/m² | - |
| 1777741000 | 7.78° C | 62% | 1014.5 hPa | 0 mm | - | 331 W/m² | - |
| 1777740698 | 6.67° C | 69% | 1014.6 hPa | 0 mm | - | 923 W/m² | - |
| 1777740393 | 6.11° C | 63% | 1014.7 hPa | 0 mm | - | 280 W/m² | - |
| 1777740091 | 6.11° C | 67% | 1014.9 hPa | 0 mm | - | 148 W/m² | - |
| 1777739787 | 7.22° C | 64% | 1014.7 hPa | 0 mm | - | 160 W/m² | - |
| 1777739484 | 7.22° C | 63% | 1014.3 hPa | 0 mm | - | 317 W/m² | - |
| 1777739180 | 7.22° C | 63% | 1014.7 hPa | 0 mm | - | 444 W/m² | - |
* Rain latest hour (hover to see other rain measurements)
** Current wind speed in m/s (hover to see current wind gust speed)